sensor_id;sensor_type;location;lat;lon;timestamp;temperature;humidity
8928;DHT22;4499;48.304;11.902;2022-07-04T00:01:58;18.60;99.90
8928;DHT22;4499;48.304;11.902;2022-07-04T00:04:27;18.60;99.90
8928;DHT22;4499;48.304;11.902;2022-07-04T00:06:56;18.60;99.90
8928;DHT22;4499;48.304;11.902;2022-07-04T00:09:25;18.70;99.90
8928;DHT22;4499;48.304;11.902;2022-07-04T00:11:53;18.70;99.90
8928;DHT22;4499;48.304;11.902;2022-07-04T00:14:22;18.70;99.90
8928;DHT22;4499;48.304;11.902;2022-07-04T00:16:50;18.70;99.90
8928;DHT22;4499;48.304;11.902;2022-07-04T00:19:18;18.80;99.90
8928;DHT22;4499;48.304;11.902;2022-07-04T00:21:47;18.80;99.90
8928;DHT22;4499;48.304;11.902;2022-07-04T00:24:15;18.80;99.90
8928;DHT22;4499;48.304;11.902;2022-07-04T00:26:44;18.80;99.90
8928;DHT22;4499;48.304;11.902;2022-07-04T00:29:13;18.90;99.90
8928;DHT22;4499;48.304;11.902;2022-07-04T00:31:42;18.90;99.90
8928;DHT22;4499;48.304;11.902;2022-07-04T00:34:10;19.00;99.90
8928;DHT22;4499;48.304;11.902;2022-07-04T00:36:38;19.10;99.90
8928;DHT22;4499;48.304;11.902;2022-07-04T00:39:07;19.10;99.90
8928;DHT22;4499;48.304;11.902;2022-07-04T00:41:35;19.10;99.90
8928;DHT22;4499;48.304;11.902;2022-07-04T00:44:06;19.20;99.90
8928;DHT22;4499;48.304;11.902;2022-07-04T00:46:39;19.30;99.90
8928;DHT22;4499;48.304;11.902;2022-07-04T00:49:09;19.30;99.90
8928;DHT22;4499;48.304;11.902;2022-07-04T00:51:39;19.40;99.90
8928;DHT22;4499;48.304;11.902;2022-07-04T00:54:09;19.40;99.90
8928;DHT22;4499;48.304;11.902;2022-07-04T00:56:38;19.40;99.90
8928;DHT22;4499;48.304;11.902;2022-07-04T00:59:09;19.40;99.90
8928;DHT22;4499;48.304;11.902;2022-07-04T01:01:38;19.40;99.90
8928;DHT22;4499;48.304;11.902;2022-07-04T01:04:06;19.40;99.90
8928;DHT22;4499;48.304;11.902;2022-07-04T01:06:34;19.50;99.90
8928;DHT22;4499;48.304;11.902;2022-07-04T01:09:03;19.50;99.90
8928;DHT22;4499;48.304;11.902;2022-07-04T01:11:32;19.50;99.90
8928;DHT22;4499;48.304;11.902;2022-07-04T01:14:01;19.60;99.90
8928;DHT22;4499;48.304;11.902;2022-07-04T01:16:30;19.50;99.90
8928;DHT22;4499;48.304;11.902;2022-07-04T01:18:59;19.50;99.90
8928;DHT22;4499;48.304;11.902;2022-07-04T01:21:29;19.40;99.90
8928;DHT22;4499;48.304;11.902;2022-07-04T01:23:58;19.40;99.90
8928;DHT22;4499;48.304;11.902;2022-07-04T01:26:27;19.40;99.90
8928;DHT22;4499;48.304;11.902;2022-07-04T01:28:57;19.40;99.90
8928;DHT22;4499;48.304;11.902;2022-07-04T01:31:25;19.40;99.90
8928;DHT22;4499;48.304;11.902;2022-07-04T01:33:53;19.30;99.90
8928;DHT22;4499;48.304;11.902;2022-07-04T01:36:21;19.20;99.90
8928;DHT22;4499;48.304;11.902;2022-07-04T01:38:51;19.20;99.90
8928;DHT22;4499;48.304;11.902;2022-07-04T01:41:19;19.10;99.90
8928;DHT22;4499;48.304;11.902;2022-07-04T01:43:47;19.20;99.90
8928;DHT22;4499;48.304;11.902;2022-07-04T01:46:16;19.30;99.90
8928;DHT22;4499;48.304;11.902;2022-07-04T01:48:44;19.30;99.90
8928;DHT22;4499;48.304;11.902;2022-07-04T01:51:12;19.20;99.90
8928;DHT22;4499;48.304;11.902;2022-07-04T01:53:40;19.30;99.90
8928;DHT22;4499;48.304;11.902;2022-07-04T01:56:10;19.30;99.90
8928;DHT22;4499;48.304;11.902;2022-07-04T01:58:38;19.30;99.90
8928;DHT22;4499;48.304;11.902;2022-07-04T02:01:06;19.40;99.90
8928;DHT22;4499;48.304;11.902;2022-07-04T02:03:52;19.40;99.90
8928;DHT22;4499;48.304;11.902;2022-07-04T02:06:20;19.40;99.90
8928;DHT22;4499;48.304;11.902;2022-07-04T02:08:49;19.40;99.90
8928;DHT22;4499;48.304;11.902;2022-07-04T02:11:36;19.40;99.90
8928;DHT22;4499;48.304;11.902;2022-07-04T02:14:22;19.40;99.90
8928;DHT22;4499;48.304;11.902;2022-07-04T02:16:50;19.50;99.90
8928;DHT22;4499;48.304;11.902;2022-07-04T02:19:20;19.50;99.90
8928;DHT22;4499;48.304;11.902;2022-07-04T02:21:48;19.50;99.90
8928;DHT22;4499;48.304;11.902;2022-07-04T02:24:18;19.40;99.90
8928;DHT22;4499;48.304;11.902;2022-07-04T02:26:48;19.40;99.90
8928;DHT22;4499;48.304;11.902;2022-07-04T02:29:16;19.40;99.90
8928;DHT22;4499;48.304;11.902;2022-07-04T02:31:45;19.30;99.90
8928;DHT22;4499;48.304;11.902;2022-07-04T02:34:13;19.30;99.90
8928;DHT22;4499;48.304;11.902;2022-07-04T02:36:42;19.20;99.90
8928;DHT22;4499;48.304;11.902;2022-07-04T02:39:10;19.20;99.90
8928;DHT22;4499;48.304;11.902;2022-07-04T02:41:38;19.20;99.90
8928;DHT22;4499;48.304;11.902;2022-07-04T02:44:08;19.20;99.90
8928;DHT22;4499;48.304;11.902;2022-07-04T02:46:37;19.20;99.90
8928;DHT22;4499;48.304;11.902;2022-07-04T02:49:05;19.30;99.90
8928;DHT22;4499;48.304;11.902;2022-07-04T02:51:35;19.20;99.90
8928;DHT22;4499;48.304;11.902;2022-07-04T02:54:04;19.20;99.90
8928;DHT22;4499;48.304;11.902;2022-07-04T02:56:32;19.20;99.90
8928;DHT22;4499;48.304;11.902;2022-07-04T02:59:00;19.20;99.90
8928;DHT22;4499;48.304;11.902;2022-07-04T03:01:30;19.10;99.90
8928;DHT22;4499;48.304;11.902;2022-07-04T03:03:59;19.10;99.90
8928;DHT22;4499;48.304;11.902;2022-07-04T03:06:27;19.10;99.90
8928;DHT22;4499;48.304;11.902;2022-07-04T03:08:55;19.10;99.90
8928;DHT22;4499;48.304;11.902;2022-07-04T03:11:24;19.00;99.90
8928;DHT22;4499;48.304;11.902;2022-07-04T03:13:52;19.00;99.90
8928;DHT22;4499;48.304;11.902;2022-07-04T03:16:21;19.00;99.90
8928;DHT22;4499;48.304;11.902;2022-07-04T03:18:50;18.90;99.90
8928;DHT22;4499;48.304;11.902;2022-07-04T03:21:18;18.90;99.90
8928;DHT22;4499;48.304;11.902;2022-07-04T03:23:47;18.90;99.90
8928;DHT22;4499;48.304;11.902;2022-07-04T03:26:25;18.90;99.90
8928;DHT22;4499;48.304;11.902;2022-07-04T03:28:53;18.80;99.90
8928;DHT22;4499;48.304;11.902;2022-07-04T03:31:22;18.90;99.90
8928;DHT22;4499;48.304;11.902;2022-07-04T03:33:53;18.80;99.90
8928;DHT22;4499;48.304;11.902;2022-07-04T03:36:22;18.80;99.90
8928;DHT22;4499;48.304;11.902;2022-07-04T03:38:50;18.80;99.90
8928;DHT22;4499;48.304;11.902;2022-07-04T03:41:18;18.80;99.90
8928;DHT22;4499;48.304;11.902;2022-07-04T03:43:47;18.90;99.90
8928;DHT22;4499;48.304;11.902;2022-07-04T03:46:15;18.90;99.90
8928;DHT22;4499;48.304;11.902;2022-07-04T03:48:43;18.90;99.90
8928;DHT22;4499;48.304;11.902;2022-07-04T03:51:13;19.00;99.90
8928;DHT22;4499;48.304;11.902;2022-07-04T03:53:41;19.00;99.90
8928;DHT22;4499;48.304;11.902;2022-07-04T03:56:10;19.00;99.90
8928;DHT22;4499;48.304;11.902;2022-07-04T03:58:38;19.00;99.90
8928;DHT22;4499;48.304;11.902;2022-07-04T04:01:06;19.00;99.90
8928;DHT22;4499;48.304;11.902;2022-07-04T04:03:35;19.00;99.90
8928;DHT22;4499;48.304;11.902;2022-07-04T04:06:22;19.00;99.90
8928;DHT22;4499;48.304;11.902;2022-07-04T04:08:50;19.00;99.90
8928;DHT22;4499;48.304;11.902;2022-07-04T04:11:18;19.00;99.90
8928;DHT22;4499;48.304;11.902;2022-07-04T04:13:47;19.00;99.90
8928;DHT22;4499;48.304;11.902;2022-07-04T04:16:15;19.00;99.90
8928;DHT22;4499;48.304;11.902;2022-07-04T04:18:43;19.10;99.90
8928;DHT22;4499;48.304;11.902;2022-07-04T04:21:11;19.10;99.90
8928;DHT22;4499;48.304;11.902;2022-07-04T04:23:41;19.20;99.90
8928;DHT22;4499;48.304;11.902;2022-07-04T04:26:10;19.20;99.90
8928;DHT22;4499;48.304;11.902;2022-07-04T04:28:39;19.30;99.90
8928;DHT22;4499;48.304;11.902;2022-07-04T04:31:07;19.40;99.90
8928;DHT22;4499;48.304;11.902;2022-07-04T04:33:36;19.40;99.90
8928;DHT22;4499;48.304;11.902;2022-07-04T04:36:05;19.40;99.90
8928;DHT22;4499;48.304;11.902;2022-07-04T04:38:33;19.40;99.90
8928;DHT22;4499;48.304;11.902;2022-07-04T04:41:03;19.40;99.90
8928;DHT22;4499;48.304;11.902;2022-07-04T04:43:31;19.40;99.90
8928;DHT22;4499;48.304;11.902;2022-07-04T04:46:00;19.40;99.90
8928;DHT22;4499;48.304;11.902;2022-07-04T04:48:28;19.40;99.90
8928;DHT22;4499;48.304;11.902;2022-07-04T04:50:57;19.30;99.90
8928;DHT22;4499;48.304;11.902;2022-07-04T04:53:25;19.20;99.90
8928;DHT22;4499;48.304;11.902;2022-07-04T04:55:54;19.20;99.90
8928;DHT22;4499;48.304;11.902;2022-07-04T04:58:23;19.10;99.90
8928;DHT22;4499;48.304;11.902;2022-07-04T05:00:52;19.10;99.90
8928;DHT22;4499;48.304;11.902;2022-07-04T05:03:40;19.20;99.90
8928;DHT22;4499;48.304;11.902;2022-07-04T05:06:09;19.20;99.90
8928;DHT22;4499;48.304;11.902;2022-07-04T05:08:37;19.20;99.90
8928;DHT22;4499;48.304;11.902;2022-07-04T05:11:05;19.10;99.90
8928;DHT22;4499;48.304;11.902;2022-07-04T05:13:35;19.10;99.90
8928;DHT22;4499;48.304;11.902;2022-07-04T05:16:04;19.20;99.90
8928;DHT22;4499;48.304;11.902;2022-07-04T05:18:32;19.20;99.90
8928;DHT22;4499;48.304;11.902;2022-07-04T05:21:00;19.40;99.90
8928;DHT22;4499;48.304;11.902;2022-07-04T05:23:29;19.50;99.90
8928;DHT22;4499;48.304;11.902;2022-07-04T05:25:57;19.70;99.90
8928;DHT22;4499;48.304;11.902;2022-07-04T05:28:26;19.90;99.90
8928;DHT22;4499;48.304;11.902;2022-07-04T05:30:55;20.00;99.90
8928;DHT22;4499;48.304;11.902;2022-07-04T05:33:23;20.10;99.90
8928;DHT22;4499;48.304;11.902;2022-07-04T05:35:52;20.20;99.90
8928;DHT22;4499;48.304;11.902;2022-07-04T05:38:20;20.20;99.90
8928;DHT22;4499;48.304;11.902;2022-07-04T05:40:48;20.20;99.90
8928;DHT22;4499;48.304;11.902;2022-07-04T05:43:16;20.10;99.90
8928;DHT22;4499;48.304;11.902;2022-07-04T05:45:45;20.10;99.90
8928;DHT22;4499;48.304;11.902;2022-07-04T05:48:16;20.10;99.90
8928;DHT22;4499;48.304;11.902;2022-07-04T05:50:45;20.10;99.90
8928;DHT22;4499;48.304;11.902;2022-07-04T05:53:13;20.20;99.90
8928;DHT22;4499;48.304;11.902;2022-07-04T05:55:42;20.40;99.90
8928;DHT22;4499;48.304;11.902;2022-07-04T05:58:10;20.60;99.90
8928;DHT22;4499;48.304;11.902;2022-07-04T06:00:38;20.90;99.90
8928;DHT22;4499;48.304;11.902;2022-07-04T06:03:07;21.00;99.90
8928;DHT22;4499;48.304;11.902;2022-07-04T06:05:37;21.00;99.90
8928;DHT22;4499;48.304;11.902;2022-07-04T06:08:05;21.00;99.90
8928;DHT22;4499;48.304;11.902;2022-07-04T06:10:33;21.10;99.90
8928;DHT22;4499;48.304;11.902;2022-07-04T06:13:01;21.00;99.90
8928;DHT22;4499;48.304;11.902;2022-07-04T06:15:35;21.00;99.90
8928;DHT22;4499;48.304;11.902;2022-07-04T06:18:04;21.10;99.90
8928;DHT22;4499;48.304;11.902;2022-07-04T06:20:32;21.00;99.90
8928;DHT22;4499;48.304;11.902;2022-07-04T06:23:04;21.00;99.90
8928;DHT22;4499;48.304;11.902;2022-07-04T06:25:33;21.00;99.90
8928;DHT22;4499;48.304;11.902;2022-07-04T06:28:01;21.10;99.90
8928;DHT22;4499;48.304;11.902;2022-07-04T06:30:30;21.20;99.90
8928;DHT22;4499;48.304;11.902;2022-07-04T06:33:01;21.40;99.90
8928;DHT22;4499;48.304;11.902;2022-07-04T06:35:31;21.50;99.90
8928;DHT22;4499;48.304;11.902;2022-07-04T06:38:18;21.60;99.90
8928;DHT22;4499;48.304;11.902;2022-07-04T06:40:46;21.70;99.90
8928;DHT22;4499;48.304;11.902;2022-07-04T06:43:17;21.90;99.90
8928;DHT22;4499;48.304;11.902;2022-07-04T06:45:45;22.10;99.90
8928;DHT22;4499;48.304;11.902;2022-07-04T06:48:13;22.10;99.90
8928;DHT22;4499;48.304;11.902;2022-07-04T06:50:43;22.20;99.90
8928;DHT22;4499;48.304;11.902;2022-07-04T06:53:12;22.10;99.90
8928;DHT22;4499;48.304;11.902;2022-07-04T06:55:42;22.10;99.90
8928;DHT22;4499;48.304;11.902;2022-07-04T06:58:11;22.00;99.90
8928;DHT22;4499;48.304;11.902;2022-07-04T07:00:40;22.10;99.90
8928;DHT22;4499;48.304;11.902;2022-07-04T07:03:10;22.10;99.90
8928;DHT22;4499;48.304;11.902;2022-07-04T07:05:38;22.00;99.90
8928;DHT22;4499;48.304;11.902;2022-07-04T07:08:25;22.00;99.90
8928;DHT22;4499;48.304;11.902;2022-07-04T07:10:56;22.00;99.90
8928;DHT22;4499;48.304;11.902;2022-07-04T07:13:24;22.00;99.90
8928;DHT22;4499;48.304;11.902;2022-07-04T07:15:53;21.80;99.90
8928;DHT22;4499;48.304;11.902;2022-07-04T07:18:22;21.80;99.90
8928;DHT22;4499;48.304;11.902;2022-07-04T07:20:50;21.90;99.90
8928;DHT22;4499;48.304;11.902;2022-07-04T07:23:29;21.80;99.90
8928;DHT22;4499;48.304;11.902;2022-07-04T07:25:59;21.60;99.90
8928;DHT22;4499;48.304;11.902;2022-07-04T07:28:27;21.60;99.90
8928;DHT22;4499;48.304;11.902;2022-07-04T07:30:56;21.70;99.90
8928;DHT22;4499;48.304;11.902;2022-07-04T07:33:24;21.50;99.90
8928;DHT22;4499;48.304;11.902;2022-07-04T07:35:52;21.50;99.90
8928;DHT22;4499;48.304;11.902;2022-07-04T07:38:21;21.40;99.90
8928;DHT22;4499;48.304;11.902;2022-07-04T07:40:49;21.30;99.90
8928;DHT22;4499;48.304;11.902;2022-07-04T07:43:19;21.40;99.90
8928;DHT22;4499;48.304;11.902;2022-07-04T07:45:47;21.40;99.90
8928;DHT22;4499;48.304;11.902;2022-07-04T07:48:16;21.40;99.90
8928;DHT22;4499;48.304;11.902;2022-07-04T07:50:46;21.40;99.90
8928;DHT22;4499;48.304;11.902;2022-07-04T07:53:14;21.40;99.90
8928;DHT22;4499;48.304;11.902;2022-07-04T07:55:43;21.40;99.90
8928;DHT22;4499;48.304;11.902;2022-07-04T07:58:11;21.40;99.90
8928;DHT22;4499;48.304;11.902;2022-07-04T08:00:41;21.40;99.90
8928;DHT22;4499;48.304;11.902;2022-07-04T08:03:25;21.50;99.90
8928;DHT22;4499;48.304;11.902;2022-07-04T08:06:11;21.50;99.90
8928;DHT22;4499;48.304;11.902;2022-07-04T08:08:39;21.50;99.90
8928;DHT22;4499;48.304;11.902;2022-07-04T08:11:08;21.40;99.90
8928;DHT22;4499;48.304;11.902;2022-07-04T08:13:37;21.30;99.90
8928;DHT22;4499;48.304;11.902;2022-07-04T08:16:07;21.30;99.90
8928;DHT22;4499;48.304;11.902;2022-07-04T08:18:35;21.30;99.90
8928;DHT22;4499;48.304;11.902;2022-07-04T08:21:04;21.40;99.90
8928;DHT22;4499;48.304;11.902;2022-07-04T08:23:38;21.60;99.90
8928;DHT22;4499;48.304;11.902;2022-07-04T08:26:27;21.70;99.90
8928;DHT22;4499;48.304;11.902;2022-07-04T08:28:56;22.40;99.90
8928;DHT22;4499;48.304;11.902;2022-07-04T08:31:27;23.10;99.90
8928;DHT22;4499;48.304;11.902;2022-07-04T08:34:17;23.60;99.90
8928;DHT22;4499;48.304;11.902;2022-07-04T08:36:45;24.20;99.90
8928;DHT22;4499;48.304;11.902;2022-07-04T08:39:14;24.70;99.90
8928;DHT22;4499;48.304;11.902;2022-07-04T08:41:43;24.90;99.90
8928;DHT22;4499;48.304;11.902;2022-07-04T08:44:12;24.60;99.90
8928;DHT22;4499;48.304;11.902;2022-07-04T08:46:42;24.50;99.90
8928;DHT22;4499;48.304;11.902;2022-07-04T08:49:15;24.30;99.90
8928;DHT22;4499;48.304;11.902;2022-07-04T08:51:52;24.60;99.90
8928;DHT22;4499;48.304;11.902;2022-07-04T08:54:24;25.00;99.90
8928;DHT22;4499;48.304;11.902;2022-07-04T08:57:10;25.50;99.90
8928;DHT22;4499;48.304;11.902;2022-07-04T08:59:58;27.10;99.90
8928;DHT22;4499;48.304;11.902;2022-07-04T09:02:28;28.80;99.90
8928;DHT22;4499;48.304;11.902;2022-07-04T09:05:00;30.40;99.90
8928;DHT22;4499;48.304;11.902;2022-07-04T09:07:29;31.30;99.90
8928;DHT22;4499;48.304;11.902;2022-07-04T09:10:02;32.00;99.90
8928;DHT22;4499;48.304;11.902;2022-07-04T09:12:31;31.80;99.10
8928;DHT22;4499;48.304;11.902;2022-07-04T09:15:20;32.20;98.80
8928;DHT22;4499;48.304;11.902;2022-07-04T09:17:50;32.90;96.20
8928;DHT22;4499;48.304;11.902;2022-07-04T09:20:20;32.70;96.30
8928;DHT22;4499;48.304;11.902;2022-07-04T09:22:51;33.40;94.70
8928;DHT22;4499;48.304;11.902;2022-07-04T09:25:21;33.30;94.30
8928;DHT22;4499;48.304;11.902;2022-07-04T09:28:01;33.70;93.60
8928;DHT22;4499;48.304;11.902;2022-07-04T09:30:30;33.90;93.70
8928;DHT22;4499;48.304;11.902;2022-07-04T09:33:03;34.20;92.20
8928;DHT22;4499;48.304;11.902;2022-07-04T09:35:32;34.60;91.60
8928;DHT22;4499;48.304;11.902;2022-07-04T09:38:04;34.40;91.30
8928;DHT22;4499;48.304;11.902;2022-07-04T09:40:34;33.90;91.20
8928;DHT22;4499;48.304;11.902;2022-07-04T09:43:25;33.80;90.60
8928;DHT22;4499;48.304;11.902;2022-07-04T09:45:55;33.80;91.00
8928;DHT22;4499;48.304;11.902;2022-07-04T09:48:26;33.90;91.80
8928;DHT22;4499;48.304;11.902;2022-07-04T09:51:02;34.50;89.40
8928;DHT22;4499;48.304;11.902;2022-07-04T09:53:31;34.00;89.60
8928;DHT22;4499;48.304;11.902;2022-07-04T09:56:00;34.30;89.40
8928;DHT22;4499;48.304;11.902;2022-07-04T09:58:28;34.30;90.90
8928;DHT22;4499;48.304;11.902;2022-07-04T10:00:59;34.40;89.30
8928;DHT22;4499;48.304;11.902;2022-07-04T10:03:30;34.00;88.40
8928;DHT22;4499;48.304;11.902;2022-07-04T10:06:04;33.90;88.30
8928;DHT22;4499;48.304;11.902;2022-07-04T10:08:33;33.90;88.40
8928;DHT22;4499;48.304;11.902;2022-07-04T10:11:04;34.10;84.70
8928;DHT22;4499;48.304;11.902;2022-07-04T10:13:36;33.90;82.20
8928;DHT22;4499;48.304;11.902;2022-07-04T10:16:14;33.80;82.60
8928;DHT22;4499;48.304;11.902;2022-07-04T10:18:50;33.50;83.20
8928;DHT22;4499;48.304;11.902;2022-07-04T10:21:19;33.60;80.80
8928;DHT22;4499;48.304;11.902;2022-07-04T10:23:48;33.60;82.50
8928;DHT22;4499;48.304;11.902;2022-07-04T10:26:18;33.60;81.00
8928;DHT22;4499;48.304;11.902;2022-07-04T10:28:47;33.50;84.60
8928;DHT22;4499;48.304;11.902;2022-07-04T10:31:16;33.60;84.60
8928;DHT22;4499;48.304;11.902;2022-07-04T10:33:46;33.60;79.40
8928;DHT22;4499;48.304;11.902;2022-07-04T10:36:17;33.70;84.70
8928;DHT22;4499;48.304;11.902;2022-07-04T10:38:51;33.80;80.10
8928;DHT22;4499;48.304;11.902;2022-07-04T10:41:20;33.80;83.40
8928;DHT22;4499;48.304;11.902;2022-07-04T10:43:56;33.90;78.10
8928;DHT22;4499;48.304;11.902;2022-07-04T10:46:32;33.90;78.60
8928;DHT22;4499;48.304;11.902;2022-07-04T10:49:02;33.60;81.30
8928;DHT22;4499;48.304;11.902;2022-07-04T10:51:38;33.40;77.60
8928;DHT22;4499;48.304;11.902;2022-07-04T10:54:09;33.10;79.30
8928;DHT22;4499;48.304;11.902;2022-07-04T10:56:43;32.50;79.70
8928;DHT22;4499;48.304;11.902;2022-07-04T10:59:14;32.60;81.70
8928;DHT22;4499;48.304;11.902;2022-07-04T11:01:53;32.20;82.20
8928;DHT22;4499;48.304;11.902;2022-07-04T11:04:47;31.70;83.20
8928;DHT22;4499;48.304;11.902;2022-07-04T11:07:17;31.20;84.70
8928;DHT22;4499;48.304;11.902;2022-07-04T11:09:46;30.90;85.50
8928;DHT22;4499;48.304;11.902;2022-07-04T11:13:02;30.60;86.70
8928;DHT22;4499;48.304;11.902;2022-07-04T11:15:59;29.90;88.80
8928;DHT22;4499;48.304;11.902;2022-07-04T11:18:28;29.40;91.30
8928;DHT22;4499;48.304;11.902;2022-07-04T11:20:57;29.30;91.00
8928;DHT22;4499;48.304;11.902;2022-07-04T11:23:27;29.30;92.10
8928;DHT22;4499;48.304;11.902;2022-07-04T11:25:58;29.30;90.50
8928;DHT22;4499;48.304;11.902;2022-07-04T11:28:31;29.10;90.80
8928;DHT22;4499;48.304;11.902;2022-07-04T11:31:12;29.10;91.20
8928;DHT22;4499;48.304;11.902;2022-07-04T11:33:44;29.10;90.60
8928;DHT22;4499;48.304;11.902;2022-07-04T11:36:15;29.00;92.40
8928;DHT22;4499;48.304;11.902;2022-07-04T11:38:51;29.20;90.90
8928;DHT22;4499;48.304;11.902;2022-07-04T11:41:23;29.10;92.20
8928;DHT22;4499;48.304;11.902;2022-07-04T11:44:10;28.90;92.50
8928;DHT22;4499;48.304;11.902;2022-07-04T11:47:05;28.90;92.80
8928;DHT22;4499;48.304;11.902;2022-07-04T11:49:34;29.50;92.80
8928;DHT22;4499;48.304;11.902;2022-07-04T11:52:03;29.60;92.90
8928;DHT22;4499;48.304;11.902;2022-07-04T11:54:32;29.80;92.50
8928;DHT22;4499;48.304;11.902;2022-07-04T11:57:22;29.70;93.10
8928;DHT22;4499;48.304;11.902;2022-07-04T11:59:58;29.70;93.60
8928;DHT22;4499;48.304;11.902;2022-07-04T12:02:28;29.30;94.10
8928;DHT22;4499;48.304;11.902;2022-07-04T12:04:57;29.20;92.20
8928;DHT22;4499;48.304;11.902;2022-07-04T12:07:27;29.10;92.30
8928;DHT22;4499;48.304;11.902;2022-07-04T12:10:05;29.20;93.10
8928;DHT22;4499;48.304;11.902;2022-07-04T12:12:34;29.20;93.10
8928;DHT22;4499;48.304;11.902;2022-07-04T12:15:04;29.10;93.40
8928;DHT22;4499;48.304;11.902;2022-07-04T12:17:35;29.50;94.30
8928;DHT22;4499;48.304;11.902;2022-07-04T12:20:11;29.50;93.90
8928;DHT22;4499;48.304;11.902;2022-07-04T12:22:42;29.70;93.10
8928;DHT22;4499;48.304;11.902;2022-07-04T12:25:23;29.70;93.50
8928;DHT22;4499;48.304;11.902;2022-07-04T12:27:53;29.60;92.30
8928;DHT22;4499;48.304;11.902;2022-07-04T12:30:22;29.60;93.50
8928;DHT22;4499;48.304;11.902;2022-07-04T12:32:52;29.30;92.50
8928;DHT22;4499;48.304;11.902;2022-07-04T12:35:43;29.20;92.90
8928;DHT22;4499;48.304;11.902;2022-07-04T12:38:16;29.10;93.80
8928;DHT22;4499;48.304;11.902;2022-07-04T12:40:55;28.80;93.50
8928;DHT22;4499;48.304;11.902;2022-07-04T12:43:25;28.90;92.50
8928;DHT22;4499;48.304;11.902;2022-07-04T12:45:54;29.10;94.10
8928;DHT22;4499;48.304;11.902;2022-07-04T12:48:26;29.00;93.40
8928;DHT22;4499;48.304;11.902;2022-07-04T12:51:08;29.10;93.20
8928;DHT22;4499;48.304;11.902;2022-07-04T12:53:37;29.30;93.80
8928;DHT22;4499;48.304;11.902;2022-07-04T12:56:08;29.30;93.50
8928;DHT22;4499;48.304;11.902;2022-07-04T12:58:37;29.60;93.70
8928;DHT22;4499;48.304;11.902;2022-07-04T13:01:06;29.40;94.60
8928;DHT22;4499;48.304;11.902;2022-07-04T13:03:34;29.30;94.60
8928;DHT22;4499;48.304;11.902;2022-07-04T13:06:02;29.60;92.70
8928;DHT22;4499;48.304;11.902;2022-07-04T13:08:30;29.60;94.80
8928;DHT22;4499;48.304;11.902;2022-07-04T13:11:02;29.50;93.00
8928;DHT22;4499;48.304;11.902;2022-07-04T13:13:49;29.20;94.70
8928;DHT22;4499;48.304;11.902;2022-07-04T13:16:17;28.70;96.50
8928;DHT22;4499;48.304;11.902;2022-07-04T13:18:46;28.80;95.80
8928;DHT22;4499;48.304;11.902;2022-07-04T13:21:15;28.60;95.60
8928;DHT22;4499;48.304;11.902;2022-07-04T13:23:44;28.10;98.20
8928;DHT22;4499;48.304;11.902;2022-07-04T13:26:12;27.80;97.70
8928;DHT22;4499;48.304;11.902;2022-07-04T13:28:40;27.80;98.30
8928;DHT22;4499;48.304;11.902;2022-07-04T13:31:10;27.90;99.20
8928;DHT22;4499;48.304;11.902;2022-07-04T13:33:39;27.90;99.20
8928;DHT22;4499;48.304;11.902;2022-07-04T13:36:07;28.20;99.20
8928;DHT22;4499;48.304;11.902;2022-07-04T13:38:35;28.50;96.80
8928;DHT22;4499;48.304;11.902;2022-07-04T13:41:24;28.80;96.20
8928;DHT22;4499;48.304;11.902;2022-07-04T13:43:53;29.20;97.60
8928;DHT22;4499;48.304;11.902;2022-07-04T13:46:25;29.00;96.50
8928;DHT22;4499;48.304;11.902;2022-07-04T13:48:53;28.60;96.20
8928;DHT22;4499;48.304;11.902;2022-07-04T13:51:21;28.50;97.30
8928;DHT22;4499;48.304;11.902;2022-07-04T13:53:50;28.60;94.90
8928;DHT22;4499;48.304;11.902;2022-07-04T13:56:19;28.60;97.50
8928;DHT22;4499;48.304;11.902;2022-07-04T13:58:48;28.70;97.80
8928;DHT22;4499;48.304;11.902;2022-07-04T14:01:16;28.80;96.60
8928;DHT22;4499;48.304;11.902;2022-07-04T14:03:49;28.70;96.30
8928;DHT22;4499;48.304;11.902;2022-07-04T14:06:18;28.80;96.90
8928;DHT22;4499;48.304;11.902;2022-07-04T14:08:47;29.00;97.60
8928;DHT22;4499;48.304;11.902;2022-07-04T14:11:15;29.10;96.30
8928;DHT22;4499;48.304;11.902;2022-07-04T14:13:44;29.20;96.10
8928;DHT22;4499;48.304;11.902;2022-07-04T14:16:13;29.20;96.50
8928;DHT22;4499;48.304;11.902;2022-07-04T14:18:42;29.30;96.10
8928;DHT22;4499;48.304;11.902;2022-07-04T14:21:12;29.30;94.80
8928;DHT22;4499;48.304;11.902;2022-07-04T14:23:42;29.30;95.30
8928;DHT22;4499;48.304;11.902;2022-07-04T14:26:13;29.20;93.70
8928;DHT22;4499;48.304;11.902;2022-07-04T14:28:43;28.90;93.50
8928;DHT22;4499;48.304;11.902;2022-07-04T14:31:15;29.10;95.10
8928;DHT22;4499;48.304;11.902;2022-07-04T14:33:43;28.70;96.30
8928;DHT22;4499;48.304;11.902;2022-07-04T14:36:14;28.50;94.30
8928;DHT22;4499;48.304;11.902;2022-07-04T14:38:43;28.20;96.70
8928;DHT22;4499;48.304;11.902;2022-07-04T14:41:11;28.30;95.70
8928;DHT22;4499;48.304;11.902;2022-07-04T14:43:40;28.50;94.70
8928;DHT22;4499;48.304;11.902;2022-07-04T14:46:09;28.60;95.90
8928;DHT22;4499;48.304;11.902;2022-07-04T14:48:38;28.70;93.10
8928;DHT22;4499;48.304;11.902;2022-07-04T14:51:07;28.60;93.80
8928;DHT22;4499;48.304;11.902;2022-07-04T14:53:36;28.60;94.50
8928;DHT22;4499;48.304;11.902;2022-07-04T14:56:05;28.60;92.80
8928;DHT22;4499;48.304;11.902;2022-07-04T14:58:34;28.60;92.20
8928;DHT22;4499;48.304;11.902;2022-07-04T15:01:02;28.60;92.20
8928;DHT22;4499;48.304;11.902;2022-07-04T15:03:31;28.70;94.50
8928;DHT22;4499;48.304;11.902;2022-07-04T15:05:59;28.80;94.40
8928;DHT22;4499;48.304;11.902;2022-07-04T15:08:28;28.70;94.60
8928;DHT22;4499;48.304;11.902;2022-07-04T15:10:58;28.50;94.20
8928;DHT22;4499;48.304;11.902;2022-07-04T15:13:26;28.10;93.50
8928;DHT22;4499;48.304;11.902;2022-07-04T15:15:56;27.90;96.10
8928;DHT22;4499;48.304;11.902;2022-07-04T15:18:45;27.90;96.00
8928;DHT22;4499;48.304;11.902;2022-07-04T15:21:14;28.20;96.30
8928;DHT22;4499;48.304;11.902;2022-07-04T15:23:59;28.10;92.50
8928;DHT22;4499;48.304;11.902;2022-07-04T15:26:44;28.40;93.90
8928;DHT22;4499;48.304;11.902;2022-07-04T15:29:13;28.40;94.80
8928;DHT22;4499;48.304;11.902;2022-07-04T15:31:43;28.30;93.90
8928;DHT22;4499;48.304;11.902;2022-07-04T15:34:12;28.40;93.50
8928;DHT22;4499;48.304;11.902;2022-07-04T15:36:41;28.50;93.50
8928;DHT22;4499;48.304;11.902;2022-07-04T15:39:11;28.60;93.50
8928;DHT22;4499;48.304;11.902;2022-07-04T15:41:40;28.70;93.10
8928;DHT22;4499;48.304;11.902;2022-07-04T15:44:10;28.60;91.60
8928;DHT22;4499;48.304;11.902;2022-07-04T15:46:38;28.40;93.10
8928;DHT22;4499;48.304;11.902;2022-07-04T15:49:28;28.40;92.30
8928;DHT22;4499;48.304;11.902;2022-07-04T15:51:56;27.90;92.40
8928;DHT22;4499;48.304;11.902;2022-07-04T15:54:25;27.90;93.30
8928;DHT22;4499;48.304;11.902;2022-07-04T15:56:53;27.90;94.70
8928;DHT22;4499;48.304;11.902;2022-07-04T15:59:23;27.80;92.00
8928;DHT22;4499;48.304;11.902;2022-07-04T16:01:52;27.60;92.40
8928;DHT22;4499;48.304;11.902;2022-07-04T16:04:21;27.50;93.70
8928;DHT22;4499;48.304;11.902;2022-07-04T16:06:50;27.40;95.50
8928;DHT22;4499;48.304;11.902;2022-07-04T16:09:18;27.30;95.40